Time;durP1;ratioP1;P1;durP2;ratioP2;P2;SDS_P1;SDS_P2;PMS_P1;PMS_P2;Temp;Humidity;BMP_temperature;BMP_pressure;BME280_temperature;BME280_humidity;BME280_pressure;Samples;Min_cycle;Max_cycle;Signal;HPM_P1;HPM_P2
2023/03/18 00:00:19;;;;;;;2.70;1.35;;;11.10;91.30;;;10.65;55.59;96780.50;5015098;28;20041;-37
2023/03/18 00:02:47;;;;;;;2.47;0.90;;;11.10;91.50;;;10.63;55.84;96785.84;5016656;28;20120;-37
2023/03/18 00:05:13;;;;;;;2.33;1.08;;;11.10;91.50;;;10.57;57.11;96787.91;5014956;28;20128;-37
2023/03/18 00:07:40;;;;;;;2.75;1.08;;;11.00;92.00;;;10.53;56.04;96783.72;5013265;28;20034;-38
2023/03/18 00:10:09;;;;;;;1.65;1.00;;;11.00;92.00;;;10.48;56.87;96783.91;5018955;28;20072;-38
2023/03/18 00:12:37;;;;;;;2.30;1.40;;;10.90;92.00;;;10.40;59.09;96784.28;5017552;28;20092;-37
2023/03/18 00:15:05;;;;;;;2.33;1.15;;;10.80;92.80;;;10.35;58.47;96788.03;5014501;28;20041;-37
2023/03/18 00:17:31;;;;;;;1.80;1.00;;;10.80;92.60;;;10.29;58.18;96771.56;5016674;28;20042;-38
2023/03/18 00:19:56;;;;;;;2.63;1.00;;;10.80;92.40;;;10.29;58.48;96783.88;5019779;28;20065;-37
2023/03/18 00:22:23;;;;;;;4.93;1.10;;;10.70;92.50;;;10.25;59.29;96780.53;5020515;28;20508;-38
2023/03/18 00:24:50;;;;;;;1.77;0.98;;;10.70;92.80;;;10.08;58.74;96762.00;5021362;28;20037;-38
2023/03/18 00:27:15;;;;;;;1.73;1.10;;;10.70;92.70;;;10.18;58.79;96781.72;5020304;28;20025;-38
2023/03/18 00:29:41;;;;;;;3.80;1.17;;;10.60;92.60;;;10.13;59.68;96781.94;5018970;28;20115;-37
2023/03/18 00:32:07;;;;;;;3.97;1.20;;;10.60;92.90;;;10.12;59.07;96789.91;5021165;28;20150;-37
2023/03/18 00:34:33;;;;;;;2.17;1.10;;;10.60;92.80;;;10.11;58.49;96798.75;5014695;28;20033;-37
2023/03/18 00:36:59;;;;;;;2.22;1.13;;;10.60;92.60;;;10.09;58.93;96806.72;5018379;28;20029;-39
2023/03/18 00:39:25;;;;;;;1.60;1.05;;;10.50;92.70;;;10.11;58.77;96807.50;5020486;28;20517;-39
2023/03/18 00:41:55;;;;;;;2.92;0.85;;;10.50;92.60;;;10.09;58.78;96811.13;5020810;28;20103;-39
2023/03/18 00:44:21;;;;;;;1.38;1.05;;;10.50;92.70;;;10.07;58.71;96811.19;5015152;28;20033;-39
2023/03/18 00:46:47;;;;;;;2.33;1.38;;;10.50;92.70;;;10.06;59.55;96812.09;5019358;28;20048;-39
2023/03/18 00:49:14;;;;;;;1.67;0.90;;;10.50;92.90;;;10.05;59.58;96818.31;5021452;28;20033;-38
2023/03/18 00:51:40;;;;;;;1.88;0.90;;;10.50;92.80;;;10.02;59.61;96820.22;5019190;28;20033;-39
2023/03/18 00:54:11;;;;;;;4.93;0.85;;;10.50;93.00;;;9.97;59.35;96815.16;5019181;28;20025;-39
2023/03/18 00:56:37;;;;;;;3.03;1.10;;;10.40;92.90;;;9.96;59.63;96815.22;5016850;28;20041;-38
2023/03/18 00:59:05;;;;;;;3.58;1.10;;;10.40;93.00;;;9.93;60.00;96813.59;5020237;28;20025;-39
2023/03/18 01:01:31;;;;;;;5.65;0.95;;;10.40;93.00;;;9.89;60.89;96812.88;5018722;28;20545;-38
2023/03/18 01:03:57;;;;;;;2.40;1.27;;;10.40;93.40;;;9.86;61.20;96826.16;5003884;28;20037;-39
2023/03/18 01:06:27;;;;;;;2.33;1.17;;;10.30;93.50;;;9.86;60.96;96822.69;5004573;28;20056;-39
2023/03/18 01:08:55;;;;;;;2.08;0.90;;;10.30;93.40;;;9.87;60.47;96816.47;5012550;28;20065;-39
2023/03/18 01:11:21;;;;;;;3.67;1.05;;;10.30;93.20;;;9.87;60.80;96814.72;5015805;28;20682;-39
2023/03/18 01:13:48;;;;;;;1.85;0.93;;;10.30;93.40;;;9.87;60.08;96821.72;5006440;28;20029;-39
2023/03/18 01:16:14;;;;;;;1.30;0.95;;;10.40;93.20;;;9.91;59.49;96820.69;5009648;28;20057;-39
2023/03/18 01:18:40;;;;;;;1.35;0.90;;;10.40;93.00;;;9.90;60.05;96825.09;5012079;28;20982;-38
2023/03/18 01:21:08;;;;;;;1.40;0.82;;;10.40;93.00;;;9.88;60.67;96816.41;5005454;28;20498;-39
2023/03/18 01:23:35;;;;;;;2.65;1.10;;;10.40;93.30;;;9.89;59.53;96815.50;4988850;28;20765;-39
2023/03/18 01:26:02;;;;;;;2.40;1.05;;;10.40;93.00;;;9.93;58.79;96814.44;5013399;28;20064;-38
2023/03/18 01:28:28;;;;;;;1.73;1.08;;;10.40;92.70;;;9.95;58.89;96819.63;5009633;28;21486;-38
2023/03/18 01:30:54;;;;;;;1.75;0.90;;;10.40;92.90;;;9.94;57.77;96818.78;5013201;28;20033;-39
2023/03/18 01:33:20;;;;;;;2.88;1.20;;;10.40;92.30;;;10.03;56.58;96814.03;5016820;28;20284;-38
2023/03/18 01:35:54;;;;;;;1.42;0.82;;;10.50;91.90;;;10.05;57.15;96802.50;5018171;28;20653;-39
2023/03/18 01:38:20;;;;;;;1.13;0.90;;;10.50;92.20;;;10.08;57.17;96794.44;5016541;28;20044;-39
2023/03/18 01:40:46;;;;;;;2.08;1.00;;;10.60;92.20;;;10.12;56.46;96798.69;5012538;28;20033;-39
2023/03/18 01:43:24;;;;;;;4.38;1.10;;;10.60;92.10;;;10.18;56.51;96804.59;5012745;28;20659;-39
2023/03/18 01:45:53;;;;;;;3.60;1.00;;;10.60;92.00;;;10.18;56.41;96791.44;5016352;28;20482;-38
2023/03/18 01:48:23;;;;;;;4.95;1.25;;;10.60;92.00;;;10.11;56.33;96769.75;5018777;28;20040;-39
2023/03/18 01:50:59;;;;;;;1.95;0.85;;;10.70;92.00;;;10.26;56.49;96792.75;5016216;28;20098;-39
2023/03/18 01:53:30;;;;;;;3.25;0.90;;;10.70;92.10;;;10.27;56.80;96797.13;4999028;28;20640;-39
2023/03/18 01:55:56;;;;;;;1.25;1.00;;;10.70;92.20;;;10.27;55.65;96797.13;5030821;23;20074;-45
2023/03/18 01:58:37;;;;;;;2.55;1.20;;;10.80;91.60;;;10.31;55.23;96800.50;5057808;28;20029;-48
2023/03/18 02:01:17;;;;;;;2.45;1.17;;;10.80;91.40;;;10.36;54.86;96802.94;5055367;28;20074;-48
2023/03/18 02:03:44;;;;;;;3.55;1.13;;;10.80;91.40;;;10.42;54.32;96794.75;5057679;28;20037;-46
2023/03/18 02:06:11;;;;;;;3.35;1.08;;;10.80;91.30;;;10.37;54.57;96794.94;5046739;28;20033;-45
2023/03/18 02:08:39;;;;;;;3.45;1.00;;;10.80;91.20;;;10.33;54.83;96803.94;5035689;28;20120;-46
2023/03/18 02:11:06;;;;;;;3.00;1.00;;;10.80;91.40;;;10.29;55.43;96797.06;5041656;28;20079;-49
2023/03/18 02:13:38;;;;;;;2.15;1.05;;;10.80;91.50;;;10.13;55.86;96784.56;5026480;28;20029;-48
2023/03/18 02:16:19;;;;;;;2.60;1.00;;;10.70;91.60;;;10.20;55.62;96786.94;5037978;28;20025;-47
2023/03/18 02:18:51;;;;;;;2.03;1.10;;;10.70;91.80;;;10.20;56.35;96794.84;5025704;28;20044;-47
2023/03/18 02:21:36;;;;;;;2.20;1.05;;;10.70;92.00;;;10.20;56.14;96802.75;5029629;28;20033;-49
2023/03/18 02:24:16;;;;;;;2.08;0.98;;;10.60;92.00;;;10.21;55.80;96802.69;5027090;28;20036;-47
2023/03/18 02:26:59;;;;;;;2.00;1.10;;;10.60;92.00;;;10.16;57.31;96796.75;5030445;28;20041;-48
2023/03/18 02:29:29;;;;;;;2.25;1.10;;;10.60;92.40;;;10.09;56.90;96806.72;5029828;28;20063;-49
2023/03/18 02:32:00;;;;;;;2.60;1.10;;;10.50;92.20;;;10.01;57.11;96794.81;5028511;28;20183;-46
2023/03/18 02:34:27;;;;;;;4.47;1.25;;;10.50;92.20;;;9.94;57.81;96799.47;5031674;28;20029;-46
2023/03/18 02:36:53;;;;;;;2.70;1.20;;;10.40;92.50;;;9.94;57.56;96805.63;5025944;28;20033;-46
2023/03/18 02:39:20;;;;;;;3.63;1.10;;;10.40;92.50;;;9.88;57.90;96797.97;5035069;28;20029;-49
2023/03/18 02:41:47;;;;;;;1.95;1.15;;;10.40;92.60;;;9.83;58.54;96802.56;5028341;28;20188;-48
2023/03/18 02:44:13;;;;;;;3.70;1.20;;;10.30;92.70;;;9.80;58.67;96801.84;5031800;28;20028;-47
2023/03/18 02:47:00;;;;;;;2.90;1.10;;;10.30;93.00;;;9.75;58.04;96800.28;5031360;28;20393;-49
2023/03/18 02:49:26;;;;;;;3.63;1.33;;;10.20;92.90;;;9.75;58.10;96812.59;5032465;28;20048;-47
2023/03/18 02:51:53;;;;;;;4.82;1.02;;;10.20;92.60;;;9.71;58.59;96819.78;5033465;28;20044;-46
2023/03/18 02:54:27;;;;;;;2.53;1.00;;;10.20;92.80;;;9.68;60.27;96812.00;5036026;28;20036;-47
2023/03/18 02:56:53;;;;;;;1.90;1.10;;;10.10;93.40;;;9.61;59.75;96807.91;5034350;28;20029;-49
2023/03/18 02:59:21;;;;;;;3.85;1.10;;;10.10;93.20;;;9.59;59.99;96814.19;5033019;28;20028;-48
2023/03/18 03:01:50;;;;;;;5.05;1.35;;;10.10;93.30;;;9.62;59.07;96809.66;5027181;28;20075;-51
2023/03/18 03:04:17;;;;;;;2.83;1.00;;;10.10;93.00;;;9.62;59.29;96814.91;5024781;28;20534;-47
2023/03/18 03:06:43;;;;;;;4.78;1.30;;;10.10;93.10;;;9.64;59.48;96822.75;5020711;28;20044;-50
2023/03/18 03:09:13;;;;;;;2.53;1.00;;;10.10;93.30;;;9.50;59.34;96804.91;5025787;28;20040;-48
2023/03/18 03:11:40;;;;;;;4.55;1.17;;;10.00;93.10;;;9.60;59.79;96831.66;5023260;28;20040;-45
2023/03/18 03:14:08;;;;;;;5.60;1.15;;;10.00;93.30;;;9.56;60.34;96833.56;5027186;28;20507;-48
2023/03/18 03:16:35;;;;;;;3.38;1.10;;;10.00;93.40;;;9.54;59.92;96832.78;5027145;28;20036;-46
2023/03/18 03:19:00;;;;;;;3.25;1.00;;;10.00;93.40;;;9.49;60.72;96829.50;5028978;28;20028;-46
2023/03/18 03:21:27;;;;;;;3.53;1.10;;;10.00;93.60;;;9.51;61.34;96832.91;5036972;28;20108;-49
2023/03/18 03:23:53;;;;;;;2.25;1.10;;;10.00;93.80;;;9.47;61.22;96834.81;5026503;28;20110;-47
2023/03/18 03:26:20;;;;;;;2.75;1.30;;;9.90;93.80;;;9.44;61.99;96834.97;5030079;28;20021;-47
2023/03/18 03:28:46;;;;;;;1.20;0.90;;;9.90;94.00;;;9.39;63.07;96841.34;5023371;28;20021;-46
2023/03/18 03:31:13;;;;;;;1.63;1.13;;;9.80;94.20;;;9.32;62.48;96843.34;5028037;28;20083;-47
2023/03/18 03:33:40;;;;;;;2.15;1.20;;;9.80;94.10;;;9.23;63.90;96833.22;5021709;28;20373;-46
2023/03/18 03:36:13;;;;;;;1.90;0.82;;;9.70;94.50;;;9.13;64.90;96832.72;5024000;28;20152;-47
2023/03/18 03:38:40;;;;;;;1.55;0.93;;;9.60;94.70;;;9.07;65.06;96843.50;5022474;28;20029;-49
2023/03/18 03:41:09;;;;;;;1.70;1.05;;;9.60;94.80;;;9.06;66.73;96836.50;5023849;28;20611;-46
2023/03/18 03:43:39;;;;;;;1.58;0.98;;;9.50;95.10;;;9.04;66.30;96846.22;5022064;28;20090;-49
2023/03/18 03:46:06;;;;;;;1.80;1.10;;;9.50;95.20;;;8.98;66.50;96847.34;5025545;28;20055;-46
2023/03/18 03:48:32;;;;;;;2.15;1.00;;;9.50;95.20;;;8.90;67.90;96850.28;5026347;28;20048;-50
2023/03/18 03:50:57;;;;;;;3.38;1.20;;;9.40;95.50;;;8.85;68.39;96841.72;5021588;28;20501;-48
2023/03/18 03:53:23;;;;;;;2.45;1.08;;;9.30;95.70;;;8.90;66.06;96845.03;5025740;28;20121;-50
2023/03/18 03:55:50;;;;;;;1.33;1.00;;;9.30;95.40;;;8.85;66.47;96839.06;5025001;28;20263;-50
2023/03/18 03:58:16;;;;;;;1.58;0.90;;;9.30;95.20;;;8.79;69.16;96847.19;5031461;28;20108;-49
2023/03/18 04:00:42;;;;;;;1.73;1.00;;;9.30;95.70;;;8.72;69.51;96850.97;5022641;28;20037;-47
2023/03/18 04:03:08;;;;;;;2.90;1.00;;;9.20;95.90;;;8.65;70.06;96838.97;5034029;28;20445;-50
2023/03/18 04:05:34;;;;;;;1.20;0.80;;;9.20;96.00;;;8.59;71.27;96846.16;5026101;28;20039;-52
2023/03/18 04:08:00;;;;;;;2.05;1.30;;;9.10;96.30;;;8.49;72.39;96839.56;5027345;28;20037;-50
2023/03/18 04:10:26;;;;;;;3.72;1.00;;;9.10;96.50;;;8.45;73.59;96835.31;5029140;28;20037;-48
2023/03/18 04:12:53;;;;;;;2.70;0.73;;;9.00;96.80;;;8.39;74.66;96832.91;5022524;28;20062;-49
2023/03/18 04:15:20;;;;;;;3.35;0.93;;;8.90;97.10;;;8.36;75.79;96843.53;5029603;28;20025;-50
2023/03/18 04:17:48;;;;;;;1.00;0.80;;;8.90;97.40;;;8.27;76.55;96843.84;5031926;28;20031;-50
2023/03/18 04:20:15;;;;;;;1.23;0.70;;;8.80;97.50;;;8.25;78.06;96850.94;5036350;28;20071;-50
2023/03/18 04:22:42;;;;;;;1.73;1.00;;;8.80;97.80;;;8.19;80.15;96845.00;5037611;28;20063;-50
2023/03/18 04:25:10;;;;;;;2.38;0.70;;;8.70;98.20;;;8.12;81.30;96850.53;5028747;28;20028;-49
2023/03/18 04:27:36;;;;;;;2.10;0.90;;;8.70;98.50;;;8.05;81.71;96849.88;5031124;28;20043;-49
2023/03/18 04:30:05;;;;;;;1.08;0.80;;;8.60;98.60;;;8.00;82.44;96846.56;5032778;28;20063;-47
2023/03/18 04:32:31;;;;;;;1.30;0.73;;;8.50;98.70;;;7.95;83.23;96848.50;5034410;28;20024;-49
2023/03/18 04:34:56;;;;;;;1.08;0.80;;;8.50;98.90;;;7.91;83.35;96857.41;5032924;28;20030;-47
2023/03/18 04:37:22;;;;;;;1.27;0.75;;;8.40;99.00;;;7.87;83.11;96851.41;5036309;28;20516;-48
2023/03/18 04:39:48;;;;;;;2.72;0.93;;;8.40;99.00;;;7.80;83.04;96850.75;5038853;28;20033;-50
2023/03/18 04:42:16;;;;;;;1.23;0.85;;;8.30;98.90;;;7.76;84.30;96851.78;5034364;28;20120;-48
2023/03/18 04:44:42;;;;;;;2.80;1.02;;;8.30;99.20;;;7.71;84.28;96848.44;5032010;28;20079;-47
2023/03/18 04:47:08;;;;;;;1.35;0.90;;;8.20;99.20;;;7.54;84.71;96829.81;5037109;28;20033;-50
2023/03/18 04:49:34;;;;;;;3.13;1.27;;;8.20;99.30;;;7.60;84.74;96853.22;5034525;28;20033;-47
2023/03/18 04:52:01;;;;;;;2.47;0.93;;;8.10;99.40;;;7.56;85.91;96855.06;5036550;28;20052;-50
2023/03/18 04:54:27;;;;;;;2.35;1.00;;;8.10;99.60;;;7.51;87.40;96857.00;5033595;28;20390;-49
2023/03/18 04:56:53;;;;;;;1.40;0.85;;;8.00;99.90;;;7.39;88.24;96839.91;5029072;28;20033;-48
2023/03/18 04:59:18;;;;;;;3.85;0.80;;;8.00;99.90;;;7.37;88.01;96856.59;5033923;28;20021;-49
2023/03/18 05:01:44;;;;;;;1.63;1.08;;;7.90;99.90;;;7.26;88.71;96849.06;5033688;28;20040;-48
2023/03/18 05:04:10;;;;;;;1.38;0.80;;;7.90;99.90;;;7.23;88.70;96852.66;5029301;28;20508;-50
2023/03/18 05:06:36;;;;;;;4.95;1.08;;;7.80;99.90;;;7.21;89.71;96851.88;5025538;28;20029;-47
2023/03/18 05:09:04;;;;;;;3.50;1.15;;;7.80;99.90;;;7.12;91.72;96844.28;5028521;28;20519;-50
2023/03/18 05:11:31;;;;;;;1.83;1.00;;;7.70;99.90;;;7.14;91.54;96849.47;5021912;28;21568;-49
2023/03/18 05:13:56;;;;;;;2.30;1.00;;;7.70;99.90;;;7.10;92.66;96847.84;5033937;28;20396;-50
2023/03/18 05:16:23;;;;;;;2.20;1.00;;;7.70;99.90;;;6.98;92.39;96833.38;5026047;28;20025;-50
2023/03/18 05:18:51;;;;;;;1.00;0.90;;;7.60;99.90;;;7.05;92.40;96843.63;5026833;28;20112;-52
2023/03/18 05:21:16;;;;;;;1.52;1.13;;;7.60;99.90;;;7.03;93.73;96853.31;5035232;28;20119;-49
2023/03/18 05:23:42;;;;;;;1.88;0.90;;;7.60;99.90;;;6.96;93.78;96846.50;5030891;28;20045;-50
2023/03/18 05:26:10;;;;;;;2.05;1.02;;;7.60;99.90;;;6.94;93.54;96847.47;5034406;28;20484;-49
2023/03/18 05:28:37;;;;;;;1.80;1.10;;;7.60;99.90;;;6.98;92.19;96854.34;5026451;28;20040;-47
2023/03/18 05:31:04;;;;;;;2.47;1.10;;;7.60;99.90;;;7.00;92.27;96863.00;5024047;28;20032;-49
2023/03/18 05:33:31;;;;;;;1.45;0.90;;;7.60;99.90;;;7.04;91.78;96862.88;5028493;28;20074;-49
2023/03/18 05:35:57;;;;;;;3.03;0.98;;;7.60;99.90;;;7.07;91.07;96859.31;5021243;28;20829;-46
2023/03/18 05:38:23;;;;;;;1.40;0.93;;;7.60;99.90;;;7.07;90.30;96854.91;5025046;28;20492;-49
2023/03/18 05:40:48;;;;;;;2.10;0.85;;;7.70;99.90;;;7.17;89.52;96865.09;5021950;28;20111;-48
2023/03/18 05:43:14;;;;;;;4.60;1.10;;;7.70;99.90;;;7.23;87.55;96862.28;5020263;28;20033;-50
2023/03/18 05:45:41;;;;;;;2.90;0.98;;;7.70;99.90;;;7.30;87.07;96866.41;5021872;28;20120;-51
2023/03/18 05:48:07;;;;;;;2.90;1.00;;;7.80;99.90;;;7.33;87.37;96862.84;5026585;28;20040;-49
2023/03/18 05:50:37;;;;;;;4.47;1.15;;;7.80;99.90;;;7.23;87.24;96843.91;5032606;28;20025;-50
2023/03/18 05:53:04;;;;;;;4.78;1.52;;;7.90;99.90;;;7.38;86.74;96860.94;5029612;28;20039;-49
2023/03/18 05:55:31;;;;;;;2.70;1.30;;;7.90;99.90;;;7.42;86.25;96858.16;5024258;28;20059;-49
2023/03/18 05:57:59;;;;;;;2.50;0.98;;;7.90;99.90;;;7.42;85.90;96859.94;5025048;28;20115;-49
2023/03/18 06:00:27;;;;;;;2.10;0.93;;;8.00;99.90;;;7.43;86.36;96867.75;5022424;28;20312;-48
2023/03/18 06:02:53;;;;;;;3.38;1.13;;;8.00;99.90;;;7.33;85.62;96834.84;5029441;28;20049;-47
2023/03/18 06:05:21;;;;;;;1.63;1.00;;;8.00;99.90;;;7.47;84.66;96851.91;5036879;28;20598;-49
2023/03/18 06:07:47;;;;;;;2.72;1.58;;;8.00;99.90;;;7.53;84.13;96859.56;5027508;28;20040;-48
2023/03/18 06:10:13;;;;;;;1.20;0.65;;;8.10;99.90;;;7.51;84.71;96858.78;5026190;28;20021;-49
2023/03/18 06:12:40;;;;;;;3.15;0.90;;;8.10;99.90;;;7.50;84.86;96863.16;5013896;28;20507;-46
2023/03/18 06:15:08;;;;;;;1.42;0.90;;;8.10;99.90;;;7.52;83.44;96866.59;5033995;28;20395;-47
2023/03/18 06:17:34;;;;;;;2.08;1.05;;;8.10;99.90;;;7.42;83.58;96850.28;5035821;28;20025;-47
2023/03/18 06:20:00;;;;;;;3.78;1.10;;;8.10;99.90;;;7.54;83.79;96872.66;5032634;28;20103;-47
2023/03/18 06:22:26;;;;;;;1.52;0.90;;;8.10;99.90;;;7.58;83.30;96865.53;5032597;28;20040;-49
2023/03/18 06:24:52;;;;;;;3.10;1.02;;;8.10;99.90;;;7.64;81.80;96881.06;5025917;28;20037;-48
2023/03/18 06:27:18;;;;;;;2.65;0.95;;;8.10;99.90;;;7.65;82.46;96880.16;5036441;28;20040;-49
2023/03/18 06:29:44;;;;;;;1.63;0.95;;;8.20;99.90;;;7.67;82.25;96883.59;5033474;28;20041;-50
2023/03/18 06:32:10;;;;;;;2.17;0.68;;;8.20;99.90;;;7.70;81.91;96890.47;5037309;28;20047;-49
2023/03/18 06:34:36;;;;;;;2.28;1.08;;;8.20;99.90;;;7.73;82.53;96882.50;5031005;28;20060;-50
2023/03/18 06:37:03;;;;;;;1.25;0.90;;;8.30;99.90;;;7.78;82.35;96880.59;5032465;28;20321;-50
2023/03/18 06:39:29;;;;;;;2.53;0.93;;;8.30;99.90;;;7.82;82.43;96882.19;5034205;28;20115;-49
2023/03/18 06:41:55;;;;;;;1.85;0.80;;;8.40;99.90;;;7.89;80.54;96881.06;5035475;28;20396;-46
2023/03/18 06:44:22;;;;;;;2.33;1.20;;;8.40;99.90;;;7.95;80.43;96887.88;5033770;28;20107;-50
2023/03/18 06:46:47;;;;;;;4.07;0.70;;;8.50;99.90;;;8.01;79.48;96891.16;5027054;28;20024;-49
2023/03/18 06:49:14;;;;;;;1.67;1.10;;;8.50;99.90;;;8.07;79.72;96879.56;5048341;28;20481;-49
2023/03/18 06:51:41;;;;;;;1.60;1.08;;;8.60;99.90;;;8.12;79.77;96887.31;5024962;28;22742;-49
2023/03/18 06:54:08;;;;;;;1.58;0.85;;;8.60;99.90;;;8.12;79.81;96885.53;5032804;28;20028;-47
2023/03/18 06:56:37;;;;;;;2.65;1.10;;;8.60;99.90;;;8.15;78.27;96882.81;5035895;28;20064;-49
2023/03/18 06:59:04;;;;;;;1.83;1.27;;;8.70;99.90;;;8.19;78.02;96881.78;5034170;28;20033;-48
2023/03/18 07:01:31;;;;;;;2.28;0.93;;;8.70;99.90;;;8.29;77.50;96894.56;5028383;28;20144;-49
2023/03/18 07:03:59;;;;;;;2.25;0.98;;;8.80;99.90;;;8.35;76.66;96889.13;5022888;28;20067;-47
2023/03/18 07:06:29;;;;;;;2.72;0.82;;;8.90;99.70;;;8.31;76.49;96872.59;5029361;28;20135;-48
2023/03/18 07:08:56;;;;;;;1.50;0.88;;;8.90;99.70;;;8.47;77.57;96888.72;5029761;28;20036;-50
2023/03/18 07:11:22;;;;;;;1.67;1.13;;;9.00;99.90;;;8.57;74.80;96889.22;5029121;28;20646;-49
2023/03/18 07:13:47;;;;;;;2.13;1.00;;;9.10;99.40;;;8.64;74.73;96895.09;5022886;28;20029;-49
2023/03/18 07:16:14;;;;;;;3.17;1.05;;;9.20;99.40;;;8.78;74.06;96892.81;5034107;28;20048;-48
2023/03/18 07:18:40;;;;;;;1.77;0.90;;;9.30;99.20;;;8.90;72.52;96902.00;5028498;28;20029;-49
2023/03/18 07:21:12;;;;;;;3.38;1.38;;;9.40;98.90;;;9.00;71.76;96898.09;5035479;28;20086;-47
2023/03/18 07:23:39;;;;;;;5.82;1.35;;;9.50;98.70;;;9.13;72.05;96895.84;5028915;28;20047;-48
2023/03/18 07:26:05;;;;;;;2.28;1.10;;;9.60;98.80;;;9.20;70.42;96891.22;5033387;28;21307;-48
2023/03/18 07:28:31;;;;;;;2.55;1.17;;;9.70;98.40;;;9.35;70.04;96901.13;5030800;28;20049;-49
2023/03/18 07:30:57;;;;;;;1.48;0.98;;;9.90;98.40;;;9.49;68.69;96904.06;5030951;28;20504;-49
2023/03/18 07:33:23;;;;;;;2.20;1.13;;;10.00;97.80;;;9.62;65.90;96906.16;5029722;28;20542;-47
2023/03/18 07:35:48;;;;;;;0.70;0.70;;;10.10;97.30;;;9.79;63.64;96908.13;5031382;28;20484;-48
2023/03/18 07:38:14;;;;;;;2.17;0.98;;;10.30;96.70;;;9.91;61.33;96911.09;5034053;28;20086;-50
2023/03/18 07:40:40;;;;;;;2.05;0.82;;;10.40;96.00;;;10.00;61.43;96912.50;5029539;28;20036;-48
2023/03/18 07:43:06;;;;;;;2.40;0.90;;;10.50;96.00;;;10.17;57.40;96918.81;5031229;28;20212;-49
2023/03/18 07:45:33;;;;;;;3.05;1.00;;;10.70;94.70;;;10.25;60.26;96914.09;5034666;28;20484;-45
2023/03/18 07:47:59;;;;;;;2.40;1.33;;;10.80;95.50;;;10.37;58.64;96916.19;5024068;28;20114;-49
2023/03/18 07:50:25;;;;;;;2.97;1.20;;;10.80;95.00;;;10.45;58.65;96913.25;5035401;28;20040;-48
2023/03/18 07:52:50;;;;;;;1.48;0.80;;;10.90;95.30;;;10.57;55.82;96919.72;5031856;28;20042;-49
2023/03/18 07:57:44;;;;;;;2.10;0.90;;;11.10;93.60;;;10.75;55.10;96921.56;4969691;28;20649;-37
2023/03/18 08:00:11;;;;;;;3.35;1.00;;;11.20;93.50;;;10.82;56.43;96928.28;4971733;28;20037;-37
2023/03/18 08:02:37;;;;;;;3.72;1.30;;;11.30;93.40;;;10.87;56.71;96921.00;4974517;28;20031;-37
2023/03/18 08:05:05;;;;;;;3.13;1.10;;;11.40;94.10;;;10.95;57.70;96922.44;4971013;28;20063;-37
2023/03/18 08:07:33;;;;;;;4.32;1.50;;;11.50;94.60;;;11.03;56.43;96926.41;4995958;28;20042;-37
2023/03/18 08:09:59;;;;;;;2.72;1.20;;;11.50;94.20;;;11.06;54.07;96918.34;4990202;28;20030;-37
2023/03/18 08:12:25;;;;;;;1.73;0.85;;;11.60;92.90;;;11.23;54.10;96925.50;4989733;28;20402;-37
2023/03/18 08:14:51;;;;;;;4.18;0.95;;;11.70;92.80;;;11.33;54.15;96936.47;4990188;28;20037;-37
2023/03/18 08:17:17;;;;;;;1.95;0.90;;;11.80;92.80;;;11.36;52.06;96933.69;4990741;28;20452;-38
2023/03/18 08:19:43;;;;;;;2.88;1.30;;;11.90;92.30;;;11.51;50.26;96933.91;4991430;28;20478;-38
2023/03/18 08:22:09;;;;;;;2.28;0.88;;;11.90;90.90;;;11.58;48.47;96941.44;4992799;28;20026;-38
2023/03/18 08:24:37;;;;;;;2.25;0.85;;;12.00;89.70;;;11.62;48.71;96927.13;4993623;28;20221;-37
2023/03/18 08:27:04;;;;;;;2.70;1.02;;;12.10;90.00;;;11.78;47.95;96932.53;4996869;28;20084;-38
2023/03/18 08:29:31;;;;;;;5.07;1.10;;;12.30;88.90;;;11.90;47.78;96931.13;4997063;28;20046;-38
2023/03/18 08:31:57;;;;;;;3.92;1.05;;;12.30;88.50;;;12.02;47.69;96940.19;4992101;28;20048;-38
2023/03/18 08:34:23;;;;;;;4.18;1.30;;;12.40;88.30;;;12.07;50.60;96932.91;4990255;28;20052;-38
2023/03/18 08:36:49;;;;;;;2.83;1.05;;;12.50;91.00;;;12.19;46.26;96945.50;4993083;28;20560;-38
2023/03/18 08:39:15;;;;;;;1.10;0.80;;;12.60;86.80;;;12.36;46.31;96935.84;4997628;28;20064;-38
2023/03/18 08:41:41;;;;;;;5.68;1.20;;;12.70;86.60;;;12.43;44.92;96937.25;4995043;28;20038;-38
2023/03/18 08:44:09;;;;;;;2.88;1.10;;;12.80;84.60;;;12.50;44.67;96930.69;4992647;28;20433;-38
2023/03/18 08:46:36;;;;;;;3.55;1.13;;;12.90;83.80;;;12.64;44.15;96937.91;4996640;28;20030;-39
2023/03/18 08:49:03;;;;;;;2.38;0.90;;;13.00;83.90;;;12.73;44.14;96936.59;4997078;28;20144;-38
2023/03/18 08:51:29;;;;;;;1.42;0.93;;;13.10;82.90;;;12.72;44.55;96933.09;4994003;28;20048;-38
2023/03/18 08:53:54;;;;;;;3.80;1.00;;;13.10;83.50;;;12.78;44.53;96921.31;4997341;28;20092;-38
2023/03/18 08:56:20;;;;;;;4.20;1.13;;;13.20;83.90;;;12.89;44.58;96931.34;4996417;28;20487;-38
2023/03/18 08:58:47;;;;;;;1.95;0.82;;;13.20;83.60;;;12.80;45.62;96901.78;4991054;28;20526;-38
2023/03/18 09:01:13;;;;;;;4.30;0.85;;;13.30;85.10;;;13.02;43.88;96913.84;4993941;28;20498;-38
2023/03/18 09:03:39;;;;;;;1.30;0.88;;;13.40;83.40;;;13.16;44.18;96915.75;4991581;28;20277;-38
2023/03/18 09:06:05;;;;;;;2.42;1.02;;;13.50;82.80;;;13.23;44.32;96922.41;4993730;28;20510;-38
2023/03/18 09:08:32;;;;;;;1.98;1.00;;;13.60;83.20;;;13.33;43.00;96922.78;4998491;28;20060;-38
2023/03/18 09:10:58;;;;;;;3.03;0.90;;;13.60;81.20;;;13.40;42.80;96910.06;4996187;28;20061;-38
2023/03/18 09:13:25;;;;;;;2.78;1.00;;;13.80;80.90;;;13.53;43.37;96922.53;4997232;28;20041;-38
2023/03/18 09:15:50;;;;;;;1.90;0.90;;;13.90;81.40;;;13.54;43.08;96920.72;4994383;28;20050;-39
2023/03/18 09:18:17;;;;;;;1.60;0.90;;;13.90;80.70;;;13.60;42.25;96919.50;4995479;28;20030;-39
2023/03/18 09:20:44;;;;;;;3.35;0.95;;;13.90;79.70;;;13.63;42.72;96912.25;4994284;28;20030;-38
2023/03/18 09:23:12;;;;;;;1.60;0.80;;;14.00;80.10;;;13.76;44.09;96909.75;4995935;28;20026;-38
2023/03/18 09:25:39;;;;;;;2.17;0.98;;;14.10;82.10;;;13.83;43.64;96913.75;4992154;28;20485;-39
2023/03/18 09:28:04;;;;;;;3.08;1.13;;;14.20;81.70;;;13.85;43.91;96911.84;4993706;28;20033;-39
2023/03/18 09:30:31;;;;;;;1.90;1.05;;;14.20;82.00;;;13.81;44.47;96910.34;4996985;28;20048;-38
2023/03/18 09:32:58;;;;;;;1.65;0.70;;;14.20;82.80;;;13.81;44.72;96898.88;4998182;28;20061;-39
2023/03/18 09:35:24;;;;;;;2.88;0.93;;;14.20;83.30;;;13.93;45.42;96911.44;4992968;28;20034;-38
2023/03/18 09:37:50;;;;;;;0.98;0.70;;;14.20;84.20;;;14.01;45.65;96903.88;4985172;28;20099;-38
2023/03/18 09:40:30;;;;;;;2.85;1.02;;;14.40;84.80;;;14.20;47.24;96898.34;4997317;28;20030;-38
2023/03/18 09:43:31;;;;;;;3.97;1.80;;;14.50;86.70;;;14.35;47.51;96891.25;4996378;28;20391;-38
2023/03/18 09:46:04;;;;;;;3.17;1.52;;;14.60;88.40;;;14.47;47.82;96902.94;4993989;28;20576;-38
2023/03/18 09:48:50;;;;;;;4.43;2.00;;;14.80;87.70;;;14.54;48.28;96900.78;4991327;28;20042;-38
2023/03/18 09:51:41;;;;;;;4.18;1.80;;;14.90;88.60;;;14.63;47.35;96902.91;4993077;28;20038;-38
2023/03/18 09:54:48;;;;;;;3.95;1.63;;;14.90;87.30;;;14.70;47.73;96891.81;4995145;28;20061;-38
2023/03/18 09:57:26;;;;;;;3.42;1.45;;;15.00;88.10;;;14.61;46.63;96903.00;4992132;28;20096;-38
2023/03/18 09:59:59;;;;;;;3.25;1.45;;;15.00;85.30;;;14.60;46.43;96898.63;5006489;28;20533;-38
2023/03/18 10:02:36;;;;;;;4.45;1.70;;;15.00;86.10;;;14.67;46.04;96899.09;5008933;28;20036;-38
2023/03/18 10:05:15;;;;;;;4.85;1.45;;;15.00;85.20;;;14.57;46.29;96884.66;5007745;28;20481;-39
2023/03/18 10:07:43;;;;;;;5.55;1.52;;;15.00;85.50;;;14.63;46.56;96876.38;4998846;28;20037;-39
2023/03/18 10:10:41;;;;;;;3.00;1.38;;;15.00;86.20;;;14.68;48.23;96871.63;5009464;28;20056;-38
2023/03/18 10:13:20;;;;;;;3.53;1.40;;;15.10;87.40;;;14.83;47.04;96878.63;5013831;28;20072;-39
2023/03/18 10:15:56;;;;;;;3.58;1.50;;;15.20;86.60;;;15.08;46.44;96880.59;4993687;28;20117;-38
2023/03/18 10:18:38;;;;;;;3.80;1.42;;;15.40;86.10;;;15.24;46.15;96875.16;4995640;28;20490;-38
2023/03/18 10:21:33;;;;;;;3.55;1.25;;;15.50;85.80;;;15.43;45.68;96880.16;4996045;28;20026;-38
2023/03/18 10:24:36;;;;;;;3.13;1.10;;;15.70;86.10;;;15.52;44.11;96875.16;4994444;28;20464;-38
2023/03/18 10:27:30;;;;;;;2.00;1.33;;;15.90;83.40;;;15.52;45.16;96873.34;4995067;28;20030;-39
2023/03/18 10:30:18;;;;;;;5.32;1.20;;;15.90;83.90;;;15.55;44.73;96877.63;5012414;28;20339;-38
2023/03/18 10:33:12;;;;;;;4.28;1.38;;;15.90;83.30;;;15.53;43.89;96858.28;4991132;28;20030;-38